createdAt,value
2023-01-30T00:00:56.805Z,6.15
2023-01-30T00:03:24.251Z,6.18
2023-01-30T00:05:50.899Z,6.21
2023-01-30T00:08:18.145Z,6.22
2023-01-30T00:10:45.879Z,6.27
2023-01-30T00:13:14.482Z,6.28
2023-01-30T00:15:42.001Z,6.31
2023-01-30T00:18:09.080Z,6.35
2023-01-30T00:20:36.378Z,6.36
2023-01-30T00:23:03.283Z,6.40
2023-01-30T00:25:31.475Z,6.42
2023-01-30T00:28:02.117Z,6.43
2023-01-30T00:30:28.940Z,6.44
2023-01-30T00:32:59.322Z,6.47
2023-01-30T00:35:28.719Z,6.47
2023-01-30T00:37:57.256Z,6.52
2023-01-30T00:40:25.694Z,6.57
2023-01-30T00:45:59.727Z,6.61
2023-01-30T00:48:26.454Z,6.63
2023-01-30T00:50:52.936Z,6.69
2023-01-30T00:53:19.651Z,6.72
2023-01-30T00:55:46.192Z,6.75
2023-01-30T00:58:13.682Z,6.80
2023-01-30T01:00:40.410Z,6.82
2023-01-30T01:03:07.780Z,6.84
2023-01-30T01:05:34.863Z,6.86
2023-01-30T01:08:01.684Z,6.89
2023-01-30T01:10:28.377Z,6.91
2023-01-30T01:12:54.841Z,6.91
2023-01-30T01:15:23.125Z,6.91
2023-01-30T01:17:50.335Z,6.90
2023-01-30T01:20:18.267Z,6.90
2023-01-30T01:22:44.848Z,6.89
2023-01-30T01:25:12.127Z,6.88
2023-01-30T01:27:38.855Z,6.84
2023-01-30T01:30:06.433Z,6.86
2023-01-30T01:32:33.119Z,6.83
2023-01-30T01:35:00.031Z,6.85
2023-01-30T01:37:26.625Z,6.83
2023-01-30T01:40:25.125Z,6.84
2023-01-30T01:42:51.682Z,6.84
2023-01-30T01:45:24.607Z,6.83
2023-01-30T01:48:04.078Z,6.80
2023-01-30T01:50:58.556Z,6.83
2023-01-30T01:53:31.349Z,6.81
2023-01-30T01:56:01.014Z,6.80
2023-01-30T01:58:37.453Z,6.81
2023-01-30T02:01:04.542Z,6.81
2023-01-30T02:03:37.869Z,6.80
2023-01-30T02:06:04.799Z,6.80
2023-01-30T02:08:57.748Z,6.80
2023-01-30T02:11:34.830Z,6.79
2023-01-30T02:14:03.001Z,6.85
2023-01-30T02:16:29.489Z,6.82
2023-01-30T02:18:56.092Z,6.88
2023-01-30T02:21:42.784Z,6.91
2023-01-30T02:24:18.181Z,6.92
2023-01-30T02:26:44.668Z,6.94
2023-01-30T02:29:26.335Z,6.95
2023-01-30T02:32:11.247Z,6.94
2023-01-30T02:35:05.966Z,6.91
2023-01-30T02:37:53.569Z,6.92
2023-01-30T02:40:28.977Z,6.90
2023-01-30T02:43:16.922Z,6.90
2023-01-30T02:45:46.339Z,6.89
2023-01-30T02:48:29.724Z,6.88
2023-01-30T02:51:05.280Z,6.83
2023-01-30T02:53:33.932Z,6.81
2023-01-30T02:56:00.779Z,6.85
2023-01-30T02:58:31.685Z,6.85
2023-01-30T03:01:16.759Z,6.87
2023-01-30T03:03:54.646Z,6.87
2023-01-30T03:06:27.215Z,6.86
2023-01-30T03:09:07.774Z,6.88
2023-01-30T03:12:06.263Z,6.87
2023-01-30T03:14:49.866Z,6.85
2023-01-30T03:17:18.565Z,6.88
2023-01-30T03:19:45.346Z,6.86
2023-01-30T03:22:11.837Z,6.87
2023-01-30T03:24:38.349Z,6.88
2023-01-30T03:27:11.233Z,6.90
2023-01-30T03:29:38.326Z,6.90
2023-01-30T03:32:05.070Z,6.91
2023-01-30T03:34:31.656Z,6.89
2023-01-30T03:36:58.203Z,6.93
2023-01-30T03:39:25.720Z,6.94
2023-01-30T03:41:52.914Z,6.98
2023-01-30T03:44:19.714Z,7.00
2023-01-30T03:46:46.217Z,7.04
2023-01-30T03:49:12.846Z,7.06
2023-01-30T03:51:39.411Z,7.05
2023-01-30T03:54:05.967Z,7.11
2023-01-30T03:56:32.537Z,7.12
2023-01-30T03:58:59.056Z,7.14
2023-01-30T04:01:25.545Z,7.16
2023-01-30T04:03:52.136Z,7.20
2023-01-30T04:06:18.598Z,7.26
2023-01-30T04:08:45.064Z,7.22
2023-01-30T04:11:11.533Z,7.27
2023-01-30T04:13:38.056Z,7.31
2023-01-30T04:16:37.269Z,7.33
2023-01-30T04:19:03.749Z,7.31
2023-01-30T04:21:30.496Z,7.36
2023-01-30T04:23:56.967Z,7.38
2023-01-30T04:26:23.420Z,7.38
2023-01-30T04:28:49.923Z,7.40
2023-01-30T04:31:16.461Z,7.40
2023-01-30T04:33:42.975Z,7.42
2023-01-30T04:36:10.828Z,7.39
2023-01-30T04:38:37.623Z,7.40
2023-01-30T04:41:04.302Z,7.43
2023-01-30T04:43:31.287Z,7.42
2023-01-30T04:45:57.988Z,7.42
2023-01-30T04:48:25.408Z,7.39
2023-01-30T04:50:54.196Z,7.40
2023-01-30T04:53:21.272Z,7.42
2023-01-30T04:55:48.597Z,7.40
2023-01-30T04:58:15.961Z,7.44
2023-01-30T05:00:42.713Z,7.46
2023-01-30T05:03:09.283Z,7.44
2023-01-30T05:05:35.829Z,7.47
2023-01-30T05:08:02.368Z,7.47
2023-01-30T05:10:29.268Z,7.48
2023-01-30T05:12:55.787Z,7.46
2023-01-30T05:15:22.303Z,7.49
2023-01-30T05:17:48.813Z,7.47
2023-01-30T05:20:15.423Z,7.49
2023-01-30T05:22:41.968Z,7.43
2023-01-30T05:25:09.129Z,7.48
2023-01-30T05:27:35.653Z,7.46
2023-01-30T05:30:02.259Z,7.45
2023-01-30T05:32:30.507Z,7.43
2023-01-30T05:34:57.366Z,7.45
2023-01-30T05:37:24.567Z,7.41
2023-01-30T05:39:51.175Z,7.36
2023-01-30T05:42:17.686Z,7.35
2023-01-30T05:44:44.179Z,7.31
2023-01-30T05:47:10.615Z,7.29
2023-01-30T05:49:37.088Z,7.26
2023-01-30T05:52:03.639Z,7.20
2023-01-30T05:54:30.139Z,7.20
2023-01-30T05:56:56.593Z,7.16
2023-01-30T05:59:23.194Z,7.11
2023-01-30T06:01:49.735Z,7.07
2023-01-30T06:04:16.220Z,7.03
2023-01-30T06:06:42.668Z,6.99
2023-01-30T06:09:10.579Z,6.94
2023-01-30T06:11:37.097Z,6.89
2023-01-30T06:14:03.724Z,6.83
2023-01-30T06:16:30.305Z,6.72
2023-01-30T06:18:56.951Z,6.71
2023-01-30T06:21:23.454Z,6.62
2023-01-30T06:23:50.090Z,6.62
2023-01-30T06:26:16.714Z,6.50
2023-01-30T06:28:43.439Z,6.43
2023-01-30T06:31:10.029Z,6.41
2023-01-30T06:33:36.473Z,6.36
2023-01-30T06:36:03.149Z,6.32
2023-01-30T06:38:29.603Z,6.28
2023-01-30T06:40:56.152Z,6.22
2023-01-30T06:43:22.665Z,6.18
2023-01-30T06:45:49.247Z,6.15
2023-01-30T06:48:15.683Z,6.05
2023-01-30T06:50:42.158Z,6.06
2023-01-30T06:53:09.203Z,6.10
2023-01-30T06:55:36.150Z,6.05
2023-01-30T06:58:06.564Z,6.06
2023-01-30T07:00:33.943Z,6.04
2023-01-30T07:03:00.635Z,6.07
2023-01-30T07:05:28.921Z,6.06
2023-01-30T07:07:55.637Z,6.00
2023-01-30T07:10:22.381Z,6.03
2023-01-30T07:12:49.009Z,6.04
2023-01-30T07:15:15.727Z,6.05
2023-01-30T07:17:42.760Z,6.07
2023-01-30T07:20:10.359Z,6.08
2023-01-30T07:22:36.838Z,6.10
2023-01-30T07:25:04.104Z,6.06
2023-01-30T07:27:30.563Z,6.01
2023-01-30T07:29:57.191Z,5.99
2023-01-30T07:32:23.721Z,5.99
2023-01-30T07:34:50.195Z,5.99
2023-01-30T07:37:16.758Z,6.07
2023-01-30T07:39:43.199Z,6.04
2023-01-30T07:42:09.698Z,5.95
2023-01-30T07:44:36.186Z,5.99
2023-01-30T07:47:03.044Z,6.02
2023-01-30T07:49:29.627Z,6.13
2023-01-30T07:51:56.146Z,6.07
2023-01-30T07:54:22.818Z,6.08
2023-01-30T07:56:49.331Z,6.11
2023-01-30T07:59:15.846Z,6.12
2023-01-30T08:01:42.434Z,6.06
2023-01-30T08:04:08.909Z,6.11
2023-01-30T08:06:39.229Z,6.15
2023-01-30T08:09:06.948Z,6.15
2023-01-30T08:11:33.873Z,6.18
2023-01-30T08:14:00.449Z,6.19
2023-01-30T08:16:27.072Z,6.24
2023-01-30T08:18:53.748Z,6.25
2023-01-30T08:21:20.235Z,6.27
2023-01-30T08:23:46.801Z,6.36
2023-01-30T08:26:13.541Z,6.42
2023-01-30T08:28:40.490Z,6.50
2023-01-30T08:31:12.145Z,6.58
2023-01-30T08:33:39.181Z,6.65
2023-01-30T08:36:06.227Z,6.70
2023-01-30T08:38:32.754Z,6.73
2023-01-30T08:41:01.005Z,6.75
2023-01-30T08:43:27.786Z,6.77
2023-01-30T08:45:54.942Z,6.78
2023-01-30T08:48:21.747Z,6.76
2023-01-30T08:50:50.933Z,6.75
2023-01-30T08:53:17.512Z,6.80
2023-01-30T08:55:44.917Z,6.82
2023-01-30T08:58:11.664Z,6.86
2023-01-30T09:00:39.741Z,6.84
2023-01-30T09:03:06.315Z,6.89
2023-01-30T09:05:32.779Z,6.90
2023-01-30T09:07:59.275Z,6.94
2023-01-30T09:10:25.834Z,6.97
2023-01-30T09:12:52.381Z,6.95
2023-01-30T09:15:18.907Z,6.96
2023-01-30T09:17:45.466Z,6.98
2023-01-30T09:20:12.271Z,6.96
2023-01-30T09:22:39.270Z,7.00
2023-01-30T09:25:06.566Z,7.04
2023-01-30T09:27:33.092Z,7.05
2023-01-30T09:29:59.682Z,7.05
2023-01-30T09:32:26.208Z,7.04
2023-01-30T09:34:52.784Z,7.06
2023-01-30T09:37:19.307Z,7.11
2023-01-30T09:39:45.755Z,7.14
2023-01-30T09:42:31.421Z,7.20
2023-01-30T09:45:13.474Z,7.22
2023-01-30T09:47:55.325Z,7.24
2023-01-30T09:50:40.242Z,7.25
2023-01-30T09:53:18.765Z,7.28
2023-01-30T09:55:46.503Z,7.31
2023-01-30T09:58:19.288Z,7.29
2023-01-30T10:00:48.785Z,7.29
2023-01-30T10:03:19.124Z,7.29
2023-01-30T10:05:56.807Z,7.28
2023-01-30T10:08:53.693Z,7.30
2023-01-30T10:12:02.145Z,7.32
2023-01-30T10:14:51.382Z,7.31
2023-01-30T10:18:01.651Z,7.38
2023-01-30T10:20:37.076Z,7.43
2023-01-30T10:23:21.494Z,7.46
2023-01-30T10:25:52.897Z,7.46
2023-01-30T10:28:40.415Z,7.52
2023-01-30T10:31:14.513Z,7.52
2023-01-30T10:33:59.664Z,7.53
2023-01-30T10:36:43.556Z,7.53
2023-01-30T10:39:55.143Z,7.51
2023-01-30T10:42:49.568Z,7.51
2023-01-30T10:45:22.282Z,7.52
2023-01-30T10:48:13.010Z,7.50
2023-01-30T10:50:52.511Z,7.50
2023-01-30T10:53:43.168Z,7.51
2023-01-30T10:56:23.602Z,7.49
2023-01-30T10:59:24.129Z,7.50
2023-01-30T11:01:59.729Z,7.67
2023-01-30T11:04:46.706Z,7.63
2023-01-30T11:07:13.911Z,8.00
2023-01-30T11:09:44.907Z,8.29
2023-01-30T11:12:12.174Z,8.44
2023-01-30T11:14:52.610Z,8.54
2023-01-30T11:17:21.410Z,8.52
2023-01-30T11:19:56.641Z,8.59
2023-01-30T11:22:26.990Z,8.50
2023-01-30T11:25:07.040Z,8.33
2023-01-30T11:27:35.199Z,8.29
2023-01-30T11:30:13.498Z,8.26
2023-01-30T11:32:42.480Z,8.22
2023-01-30T11:35:08.950Z,8.21
2023-01-30T11:37:38.375Z,8.25
2023-01-30T11:40:25.935Z,8.35
2023-01-30T11:43:14.188Z,8.50
2023-01-30T11:45:45.279Z,8.75
2023-01-30T11:48:33.467Z,8.72
2023-01-30T11:51:09.353Z,8.73
2023-01-30T11:53:41.321Z,8.71
2023-01-30T11:56:32.682Z,8.75
2023-01-30T11:59:02.470Z,8.67
2023-01-30T12:01:31.779Z,8.62
2023-01-30T12:03:59.430Z,8.50
2023-01-30T12:06:32.328Z,8.44
2023-01-30T12:08:59.709Z,8.43
2023-01-30T12:11:36.640Z,8.49
2023-01-30T12:14:32.478Z,8.53
2023-01-30T12:16:58.959Z,8.60
2023-01-30T12:19:36.232Z,8.58
2023-01-30T12:22:18.635Z,8.46
2023-01-30T12:24:55.504Z,8.35
2023-01-30T12:27:48.334Z,8.25
2023-01-30T12:30:24.790Z,8.31
2023-01-30T12:32:55.952Z,8.32
2023-01-30T12:35:30.936Z,8.32
2023-01-30T12:38:06.372Z,8.27
2023-01-30T12:40:42.199Z,8.23
2023-01-30T12:43:28.313Z,8.25
2023-01-30T12:46:19.286Z,8.26
2023-01-30T12:49:22.789Z,8.27
2023-01-30T12:52:27.950Z,8.34
2023-01-30T12:55:09.818Z,8.32
2023-01-30T12:58:00.814Z,8.27
2023-01-30T13:00:45.766Z,8.22
2023-01-30T13:03:35.454Z,8.23
2023-01-30T13:06:17.146Z,8.22
2023-01-30T13:09:07.966Z,8.23
2023-01-30T13:11:48.201Z,8.21
2023-01-30T13:14:21.532Z,8.20
2023-01-30T13:17:12.052Z,8.22
2023-01-30T13:20:17.376Z,8.16
2023-01-30T13:23:04.459Z,8.19
2023-01-30T13:28:51.979Z,8.15
2023-01-30T13:31:22.266Z,8.10
2023-01-30T13:33:55.470Z,8.12
2023-01-30T13:36:41.367Z,8.13
2023-01-30T13:39:18.730Z,8.10
2023-01-30T13:41:53.328Z,8.09
2023-01-30T13:44:31.471Z,8.11
2023-01-30T13:47:03.351Z,8.15
2023-01-30T13:49:45.052Z,8.23
2023-01-30T13:52:15.279Z,8.30
2023-01-30T13:54:57.437Z,8.32
2023-01-30T13:57:48.169Z,8.28
2023-01-30T14:00:28.146Z,8.20
2023-01-30T14:03:03.647Z,8.23
2023-01-30T14:05:51.962Z,8.19
2023-01-30T14:08:27.905Z,8.16
2023-01-30T14:10:56.221Z,8.17
2023-01-30T14:13:24.804Z,8.15
2023-01-30T14:15:59.626Z,8.16
2023-01-30T14:18:34.013Z,8.12
2023-01-30T14:21:22.586Z,8.07
2023-01-30T14:24:01.405Z,8.05
2023-01-30T14:26:53.127Z,8.09
2023-01-30T14:29:37.918Z,8.04
2023-01-30T14:32:14.212Z,8.02
2023-01-30T14:35:10.996Z,7.98
2023-01-30T14:37:41.609Z,7.97
2023-01-30T14:40:23.368Z,7.97
2023-01-30T14:43:34.482Z,7.96
2023-01-30T14:46:03.667Z,7.95
2023-01-30T14:48:37.629Z,7.95
2023-01-30T14:51:31.970Z,7.91
2023-01-30T14:54:01.384Z,7.95
2023-01-30T14:56:38.090Z,7.94
2023-01-30T14:59:09.502Z,7.90
2023-01-30T15:02:12.335Z,7.95
2023-01-30T15:04:46.698Z,7.97
2023-01-30T15:07:23.691Z,7.94
2023-01-30T15:10:05.708Z,7.96
2023-01-30T15:12:43.432Z,7.94
2023-01-30T15:15:25.170Z,7.94
2023-01-30T15:18:07.851Z,7.93
2023-01-30T15:20:56.331Z,7.92
2023-01-30T15:23:41.344Z,7.88
2023-01-30T15:26:07.866Z,7.87
2023-01-30T15:28:38.724Z,7.83
2023-01-30T15:31:18.274Z,7.86
2023-01-30T15:33:50.112Z,7.85
2023-01-30T15:36:26.027Z,7.82
2023-01-30T15:39:06.627Z,7.83
2023-01-30T15:41:40.421Z,7.79
2023-01-30T15:44:14.406Z,7.80
2023-01-30T15:46:56.862Z,7.80
2023-01-30T15:49:41.346Z,7.81
2023-01-30T15:52:14.743Z,7.76
2023-01-30T15:54:48.834Z,7.76
2023-01-30T15:57:24.218Z,7.76
2023-01-30T15:59:53.145Z,7.70
2023-01-30T16:02:28.790Z,7.70
2023-01-30T16:05:19.378Z,7.64
2023-01-30T16:07:48.394Z,7.63
2023-01-30T16:10:20.717Z,7.62
2023-01-30T16:12:48.843Z,7.49
2023-01-30T16:15:39.882Z,7.38
2023-01-30T16:18:29.571Z,7.23
2023-01-30T16:21:02.568Z,7.13
2023-01-30T16:23:59.946Z,7.07
2023-01-30T16:26:26.982Z,7.01
2023-01-30T16:29:01.419Z,6.93
2023-01-30T16:31:35.732Z,6.90
2023-01-30T16:34:02.565Z,6.80
2023-01-30T16:36:32.989Z,6.77
2023-01-30T16:39:00.101Z,6.75
2023-01-30T16:41:35.505Z,6.76
2023-01-30T16:44:22.904Z,6.73
2023-01-30T16:47:23.623Z,6.68
2023-01-30T16:49:50.791Z,6.66
2023-01-30T16:52:19.558Z,6.67
2023-01-30T16:54:53.074Z,6.61
2023-01-30T16:57:35.791Z,6.57
2023-01-30T17:00:19.513Z,6.56
2023-01-30T17:03:01.764Z,6.57
2023-01-30T17:05:48.727Z,6.51
2023-01-30T17:08:31.395Z,6.50
2023-01-30T17:10:59.739Z,6.44
2023-01-30T17:13:42.795Z,6.42
2023-01-30T17:16:21.569Z,6.42
2023-01-30T17:18:53.460Z,6.37
2023-01-30T17:21:21.616Z,6.37
2023-01-30T17:23:53.001Z,6.29
2023-01-30T17:26:19.595Z,6.19
2023-01-30T17:28:46.111Z,6.16
2023-01-30T17:31:14.341Z,6.14
2023-01-30T17:33:41.321Z,6.09
2023-01-30T17:36:19.070Z,6.07
2023-01-30T17:38:46.364Z,6.04
2023-01-30T17:41:30.864Z,6.08
2023-01-30T17:43:58.063Z,6.08
2023-01-30T17:46:33.838Z,6.06
2023-01-30T17:49:00.679Z,6.03
2023-01-30T17:51:27.126Z,5.95
2023-01-30T17:53:53.644Z,5.96
2023-01-30T17:56:53.039Z,5.94
2023-01-30T17:59:20.644Z,5.94
2023-01-30T18:01:49.484Z,5.95
2023-01-30T18:04:17.865Z,5.95
2023-01-30T18:06:47.293Z,5.91
2023-01-30T18:09:19.288Z,5.87
2023-01-30T18:11:46.421Z,5.84
2023-01-30T18:14:12.903Z,5.86
2023-01-30T18:16:39.426Z,5.79
2023-01-30T18:19:09.352Z,5.71
2023-01-30T18:21:38.292Z,5.68
2023-01-30T18:24:05.138Z,5.63
2023-01-30T18:26:31.714Z,5.59
2023-01-30T18:28:58.396Z,5.57
2023-01-30T18:31:28.331Z,5.53
2023-01-30T18:33:55.368Z,5.46
2023-01-30T18:36:22.176Z,5.41
2023-01-30T18:38:48.889Z,5.43
2023-01-30T18:41:18.338Z,5.43
2023-01-30T18:43:45.770Z,5.37
2023-01-30T18:46:14.823Z,5.34
2023-01-30T18:48:41.824Z,5.30
2023-01-30T18:51:14.551Z,5.27
2023-01-30T18:53:42.860Z,5.28
2023-01-30T18:56:11.567Z,5.25
2023-01-30T18:58:38.487Z,5.27
2023-01-30T19:01:14.115Z,5.24
2023-01-30T19:03:41.625Z,5.16
2023-01-30T19:06:11.664Z,5.13
2023-01-30T19:08:38.526Z,5.12
2023-01-30T19:11:29.562Z,5.11
2023-01-30T19:13:56.824Z,5.07
2023-01-30T19:16:25.313Z,5.04
2023-01-30T19:18:53.435Z,4.97
2023-01-30T19:21:20.315Z,4.96
2023-01-30T19:23:47.248Z,4.95
2023-01-30T19:26:13.844Z,4.94
2023-01-30T19:28:41.748Z,4.91
2023-01-30T19:31:09.603Z,4.83
2023-01-30T19:33:36.373Z,4.78
2023-01-30T19:36:09.519Z,4.76
2023-01-30T19:38:36.243Z,4.68
2023-01-30T19:41:02.763Z,4.65
2023-01-30T19:43:29.389Z,4.55
2023-01-30T19:46:00.610Z,4.56
2023-01-30T19:48:27.195Z,4.51
2023-01-30T19:50:53.887Z,4.49
2023-01-30T19:53:20.346Z,4.42
2023-01-30T19:55:51.147Z,4.32
2023-01-30T19:58:18.322Z,4.33
2023-01-30T20:00:45.376Z,4.21
2023-01-30T20:03:16.313Z,4.18
2023-01-30T20:05:43.814Z,4.16
2023-01-30T20:08:19.126Z,4.16
2023-01-30T20:11:04.802Z,4.08
2023-01-30T20:13:31.562Z,4.12
2023-01-30T20:16:05.976Z,4.10
2023-01-30T20:18:35.202Z,4.08
2023-01-30T20:21:10.473Z,4.09
2023-01-30T20:23:37.924Z,4.10
2023-01-30T20:26:07.289Z,4.08
2023-01-30T20:28:35.037Z,4.08
2023-01-30T20:31:11.428Z,4.03
2023-01-30T20:33:38.241Z,4.04
2023-01-30T20:36:07.605Z,4.03
2023-01-30T20:38:35.381Z,4.06
2023-01-30T20:41:09.349Z,4.02
2023-01-30T20:43:40.824Z,4.00
2023-01-30T20:46:10.407Z,4.02
2023-01-30T20:48:40.921Z,4.03
2023-01-30T20:51:10.644Z,3.98
2023-01-30T20:53:38.356Z,3.93
2023-01-30T20:56:06.910Z,3.91
2023-01-30T20:58:33.466Z,3.88
2023-01-30T21:01:17.618Z,3.86
2023-01-30T21:03:48.785Z,3.85
2023-01-30T21:06:42.675Z,3.83
2023-01-30T21:09:02.538Z,3.82
2023-01-30T21:11:29.098Z,3.83
2023-01-30T21:13:55.571Z,3.75
2023-01-30T21:16:24.774Z,3.72
2023-01-30T21:18:54.540Z,3.72
2023-01-30T21:21:50.525Z,3.74
2023-01-30T21:24:23.783Z,3.70
2023-01-30T21:26:50.788Z,3.72
2023-01-30T21:29:19.689Z,3.73
2023-01-30T21:31:46.721Z,3.70
2023-01-30T21:34:13.713Z,3.68
2023-01-30T21:36:40.534Z,3.66
2023-01-30T21:39:25.529Z,3.66
2023-01-30T21:41:52.012Z,3.68
2023-01-30T21:44:20.116Z,3.69
2023-01-30T21:46:48.167Z,3.63
2023-01-30T21:49:16.015Z,3.62
2023-01-30T21:51:47.185Z,3.61
2023-01-30T21:54:14.709Z,3.57
2023-01-30T21:56:42.112Z,3.56
2023-01-30T21:59:08.841Z,3.59
2023-01-30T22:01:37.058Z,3.61
2023-01-30T22:04:06.948Z,3.65
2023-01-30T22:06:33.615Z,3.72
2023-01-30T22:09:01.850Z,3.71
2023-01-30T22:11:29.431Z,3.76
2023-01-30T22:13:56.843Z,3.79
2023-01-30T22:16:27.626Z,3.79
2023-01-30T22:19:00.365Z,3.80
2023-01-30T22:21:29.665Z,3.79
2023-01-30T22:23:56.181Z,3.81
2023-01-30T22:26:24.604Z,3.78
2023-01-30T22:28:59.449Z,3.73
2023-01-30T22:31:29.327Z,3.68
2023-01-30T22:33:56.665Z,3.69
2023-01-30T22:36:25.355Z,3.62
2023-01-30T22:38:52.567Z,3.57
2023-01-30T22:41:21.963Z,3.54
2023-01-30T22:43:55.242Z,3.49
2023-01-30T22:46:25.058Z,3.51
2023-01-30T22:48:51.953Z,3.49
2023-01-30T22:51:24.719Z,3.45
2023-01-30T22:53:54.029Z,3.42
2023-01-30T22:56:24.183Z,3.36
2023-01-30T22:58:51.232Z,3.37
2023-01-30T23:01:22.376Z,3.34
2023-01-30T23:03:59.487Z,3.30
2023-01-30T23:06:27.722Z,3.31
2023-01-30T23:08:55.046Z,3.25
2023-01-30T23:11:29.282Z,3.20
2023-01-30T23:13:58.228Z,3.15
2023-01-30T23:16:27.764Z,3.09
2023-01-30T23:18:58.276Z,3.11
2023-01-30T23:21:27.870Z,3.05
2023-01-30T23:23:57.512Z,3.04
2023-01-30T23:26:26.817Z,3.04
2023-01-30T23:28:53.739Z,3.02
2023-01-30T23:31:22.894Z,3.01
2023-01-30T23:34:02.947Z,2.99
2023-01-30T23:36:29.987Z,2.92
2023-01-30T23:38:59.662Z,2.76
2023-01-30T23:41:29.412Z,2.73
2023-01-30T23:43:57.383Z,2.61
2023-01-30T23:46:29.580Z,2.48
2023-01-30T23:48:58.151Z,2.50
2023-01-30T23:51:27.044Z,2.46
2023-01-30T23:53:54.616Z,2.44
2023-01-30T23:56:22.996Z,2.45
2023-01-30T23:58:50.054Z,2.48
